Station Historical Data
Daily Summary for November 26, 2017 Units:  English    Metric   Both
« Previous Day
Next Day »
Daily Weekly Monthly Yearly Custom
  High: Low: Average:
Temperature: 60.5 °F 40.2 °F 48.7 °F
Dew Point: 41.0 °F 22.4 °F 31.7 °F
Humidity: 83% 25% 56%
Wind Speed: 11.5mph 0.0mph 2mph
Wind Gust: 11.5mph - -
Wind- - SSW
Pressure: 30.24 in 30.10 in -
Precipitation: 0.00 in    
Historical Graphs
 
 
Tabular Data for November 26, 2017
Time Temperature Dew Point Pressure Wind Wind Speed Wind Gust Humidity Rainfall Rate (Hourly) solar Conditions
00:01 46.5 °F 41.0 °F 30.11 in WNW 1.2 mph   81% 0.00 in WeatherDisplay:10.37 W/m2 CLR
00:06 46.5 °F 41.0 °F 30.11 in WNW 1.2 mph   81% 0.00 in WeatherDisplay:10.37 W/m2 CLR
00:12 46.5 °F 41.0 °F 30.11 in West 1.2 mph   81% 0.00 in WeatherDisplay:10.37 W/m2 CLR
00:17 46.5 °F 40.7 °F 30.11 in Calm     80% 0.00 in WeatherDisplay:10.37 W/m2 CLR
00:22 46.4 °F 40.9 °F 30.11 in Calm     81% 0.00 in WeatherDisplay:10.37 W/m2 CLR
00:27 46.5 °F 40.7 °F 30.11 in Calm   0.1 mph 80% 0.00 in WeatherDisplay:10.37 W/m2 CLR
00:32 46.5 °F 40.7 °F 30.11 in WNW 1.2 mph   80% 0.00 in WeatherDisplay:10.37 W/m2 CLR
00:37 46.6 °F 40.8 °F 30.11 in West 1.2 mph   80% 0.00 in WeatherDisplay:10.37 W/m2 CLR
00:42 46.6 °F 40.8 °F 30.10 in West 1.2 mph   80% 0.00 in WeatherDisplay:10.37 W/m2 CLR
00:47 46.6 °F 40.8 °F 30.10 in West 1.2 mph 1.2 mph 80% 0.00 in WeatherDisplay:10.37 W/m2 CLR
00:52 46.6 °F 40.4 °F 30.10 in SW 1.2 mph   79% 0.00 in WeatherDisplay:10.37 W/m2 CLR
00:57 46.5 °F 40.3 °F 30.10 in SSE 1.2 mph   79% 0.00 in WeatherDisplay:10.37 W/m2 CLR
01:02 46.4 °F 40.6 °F 30.10 in Calm     80% 0.00 in WeatherDisplay:10.37 W/m2 CLR
01:07 46.4 °F 40.6 °F 30.10 in Calm     80% 0.00 in WeatherDisplay:10.37 W/m2 CLR
01:12 46.2 °F 40.4 °F 30.10 in Calm     80% 0.00 in WeatherDisplay:10.37 W/m2 CLR
01:17 46.1 °F 40.3 °F 30.10 in Calm     80% 0.00 in WeatherDisplay:10.37 W/m2 CLR
01:23 45.9 °F 40.1 °F 30.10 in Calm     80% 0.00 in WeatherDisplay:10.37 W/m2 CLR
01:28 45.6 °F 40.1 °F 30.10 in Calm     81% 0.00 in WeatherDisplay:10.37 W/m2 CLR
01:33 45.5 °F 40.0 °F 30.11 in SE 1.2 mph   81% 0.00 in WeatherDisplay:10.37 W/m2 CLR
01:38 45.3 °F 39.8 °F 30.11 in NNW 1.2 mph   81% 0.00 in WeatherDisplay:10.37 W/m2 CLR
01:43 45.2 °F 39.7 °F 30.11 in NNW 1.2 mph   81% 0.00 in WeatherDisplay:10.37 W/m2 CLR
01:48 45.0 °F 39.5 °F 30.11 in Calm     81% 0.00 in WeatherDisplay:10.37 W/m2 CLR
01:53 44.9 °F 39.4 °F 30.11 in Calm     81% 0.00 in WeatherDisplay:10.37 W/m2 CLR
01:58 44.8 °F 39.6 °F 30.11 in Calm     82% 0.00 in WeatherDisplay:10.37 W/m2 CLR
02:03 44.7 °F 39.5 °F 30.11 in NNW 1.2 mph   82% 0.00 in WeatherDisplay:10.37 W/m2 CLR
02:09 44.6 °F 39.4 °F 30.11 in NNW 1.2 mph   82% 0.00 in WeatherDisplay:10.37 W/m2 CLR
02:14 44.6 °F 39.4 °F 30.11 in Calm     82% 0.00 in WeatherDisplay:10.37 W/m2 CLR
02:19 44.5 °F 39.3 °F 30.11 in Calm     82% 0.00 in WeatherDisplay:10.37 W/m2 CLR
02:24 44.4 °F 39.2 °F 30.11 in Calm     82% 0.00 in WeatherDisplay:10.37 W/m2 CLR
02:29 44.3 °F 39.2 °F 30.11 in WNW 1.2 mph   82% 0.00 in WeatherDisplay:10.37 W/m2 CLR
02:34 44.1 °F 39.0 °F 30.12 in WNW 1.2 mph   82% 0.00 in WeatherDisplay:10.37 W/m2 CLR
02:39 44.0 °F 38.9 °F 30.12 in Calm     82% 0.00 in WeatherDisplay:10.37 W/m2 CLR
02:44 43.8 °F 38.7 °F 30.12 in Calm     82% 0.00 in WeatherDisplay:10.37 W/m2 CLR
02:49 43.7 °F 38.9 °F 30.12 in Calm     83% 0.00 in WeatherDisplay:10.37 W/m2 CLR
02:54 43.5 °F 38.7 °F 30.12 in Calm     83% 0.00 in WeatherDisplay:10.37 W/m2 CLR
02:59 43.4 °F 38.6 °F 30.12 in Calm     83% 0.00 in WeatherDisplay:10.37 W/m2 CLR
03:04 43.2 °F 38.4 °F 30.12 in Calm     83% 0.00 in WeatherDisplay:10.37 W/m2 CLR
03:10 43.2 °F 38.4 °F 30.12 in Calm     83% 0.00 in WeatherDisplay:10.37 W/m2 CLR
03:15 43.2 °F 38.4 °F 30.12 in Calm     83% 0.00 in WeatherDisplay:10.37 W/m2 CLR
03:20 43.2 °F 38.1 °F 30.13 in NW 1.2 mph   82% 0.00 in WeatherDisplay:10.37 W/m2 CLR
03:25 43.6 °F 38.2 °F 30.13 in SW 2.3 mph   81% 0.00 in WeatherDisplay:10.37 W/m2 CLR
03:30 43.6 °F 37.8 °F 30.13 in SSW 2.3 mph   80% 0.00 in WeatherDisplay:10.37 W/m2 CLR
03:35 43.7 °F 37.6 °F 30.13 in SW 1.2 mph   79% 0.00 in WeatherDisplay:10.37 W/m2 CLR
03:41 43.9 °F 37.5 °F 30.13 in SW 1.2 mph   78% 0.00 in WeatherDisplay:10.37 W/m2 CLR
03:46 43.9 °F 37.2 °F 30.13 in SW 1.2 mph   77% 0.00 in WeatherDisplay:10.37 W/m2 CLR
03:51 43.7 °F 37.3 °F 30.13 in SW 1.2 mph   78% 0.00 in WeatherDisplay:10.37 W/m2 CLR
03:56 43.5 °F 37.1 °F 30.13 in WSW 1.2 mph   78% 0.00 in WeatherDisplay:10.37 W/m2 CLR
03:58 43.5 °F 36.8 °F 30.13 in SW 1.2 mph   77% 0.00 in WeatherDisplay:10.37 W/m2 CLR
04:03 43.5 °F 36.8 °F 30.13 in ESE 1.2 mph   77% 0.00 in WeatherDisplay:10.37 W/m2 CLR
04:08 43.4 °F 36.7 °F 30.13 in Calm     77% 0.00 in WeatherDisplay:10.37 W/m2 CLR
04:18 43.7 °F 36.3 °F 30.14 in NW 2.3 mph 2.3 mph 75% 0.00 in WeatherDisplay:10.37 W/m2 CLR
04:23 43.8 °F 36.4 °F 30.14 in ENE 2.3 mph   75% 0.00 in WeatherDisplay:10.37 W/m2 CLR
04:28 43.8 °F 36.4 °F 30.14 in NNW 2.3 mph   75% 0.00 in WeatherDisplay:10.37 W/m2 CLR
04:33 43.7 °F 36.0 °F 30.14 in NW 1.2 mph   74% 0.00 in WeatherDisplay:10.37 W/m2 CLR
04:38 43.7 °F 36.0 °F 30.14 in WNW 1.2 mph 1.2 mph 74% 0.00 in WeatherDisplay:10.37 W/m2 CLR
04:43 43.7 °F 35.6 °F 30.14 in West 1.2 mph 1.2 mph 73% 0.00 in WeatherDisplay:10.37 W/m2 CLR
04:49 43.9 °F 35.8 °F 30.14 in SW 1.2 mph   73% 0.00 in WeatherDisplay:10.37 W/m2 CLR
04:54 43.9 °F 35.8 °F 30.15 in SE 1.2 mph 1.2 mph 73% 0.00 in WeatherDisplay:10.37 W/m2 CLR
04:59 43.8 °F 35.4 °F 30.15 in SSE 1.2 mph 1.2 mph 72% 0.00 in WeatherDisplay:10.37 W/m2 CLR
05:04 43.7 °F 35.3 °F 30.15 in North 1.2 mph 1.2 mph 72% 0.00 in WeatherDisplay:10.37 W/m2 CLR
05:09 43.7 °F 35.3 °F 30.15 in NE 2.3 mph   72% 0.00 in WeatherDisplay:10.37 W/m2 CLR
05:14 43.8 °F 35.4 °F 30.15 in East 2.3 mph   72% 0.00 in WeatherDisplay:10.37 W/m2 CLR
05:24 43.7 °F 35.3 °F 30.15 in SSE 1.2 mph   72% 0.00 in WeatherDisplay:10.37 W/m2 CLR
05:29 43.6 °F 35.2 °F 30.16 in ESE 1.2 mph   72% 0.00 in WeatherDisplay:10.37 W/m2 CLR
05:34 43.5 °F 35.1 °F 30.16 in East 1.2 mph 1.2 mph 72% 0.00 in WeatherDisplay:10.37 W/m2 CLR
05:39 43.3 °F 34.9 °F 30.16 in NNW 1.2 mph   72% 0.00 in WeatherDisplay:10.37 W/m2 CLR
05:44 43.1 °F 35.0 °F 30.16 in NW 1.2 mph   73% 0.00 in WeatherDisplay:10.37 W/m2 CLR
05:49 42.8 °F 34.7 °F 30.16 in WNW 1.2 mph 1.2 mph 73% 0.00 in WeatherDisplay:10.37 W/m2 CLR
05:55 42.6 °F 34.5 °F 30.16 in Calm   1.0 mph 73% 0.00 in WeatherDisplay:10.37 W/m2 CLR
06:00 42.3 °F 34.3 °F 30.17 in WSW 1.2 mph   73% 0.00 in WeatherDisplay:10.37 W/m2 CLR
06:05 42.1 °F 34.4 °F 30.17 in Calm     74% 0.00 in WeatherDisplay:10.37 W/m2 CLR
06:10 41.7 °F 34.4 °F 30.17 in Calm     75% 0.00 in WeatherDisplay:10.37 W/m2 CLR
06:15 41.5 °F 34.5 °F 30.17 in WSW 1.2 mph   76% 0.00 in WeatherDisplay:10.37 W/m2 CLR
06:20 41.3 °F 34.3 °F 30.17 in WSW 1.2 mph   76% 0.00 in WeatherDisplay:10.37 W/m2 CLR
06:25 41.1 °F 34.8 °F 30.17 in Calm     78% 0.00 in WeatherDisplay:10.37 W/m2 CLR
06:30 40.9 °F 34.2 °F 30.17 in South 1.2 mph   77% 0.00 in WeatherDisplay:10.37 W/m2 CLR
06:35 40.8 °F 33.8 °F 30.17 in East 1.2 mph   76% 0.00 in WeatherDisplay:10.37 W/m2 CLR
06:40 40.8 °F 33.8 °F 30.18 in East 1.2 mph   76% 0.00 in WeatherDisplay:10.37 W/m2 CLR
06:45 40.9 °F 33.9 °F 30.18 in Calm     76% 0.00 in WeatherDisplay:10.37 W/m2 CLR
06:50 40.9 °F 33.9 °F 30.18 in Calm     76% 0.00 in WeatherDisplay:10.37 W/m2 CLR
06:55 41.0 °F 34.0 °F 30.18 in Calm     76% 0.00 in WeatherDisplay:10.37 W/m2 CLR
07:01 41.1 °F 33.8 °F 30.19 in Calm     75% 0.00 in WeatherDisplay:10.37 W/m2 CLR
07:06 41.2 °F 33.5 °F 30.19 in East 1.2 mph   74% 0.00 in WeatherDisplay:10.37 W/m2 CLR
07:11 41.0 °F 33.7 °F 30.19 in East 1.2 mph   75% 0.00 in WeatherDisplay:10.37 W/m2 CLR
07:16 40.8 °F 33.8 °F 30.19 in East 1.2 mph   76% 0.00 in WeatherDisplay:10.37 W/m2 CLR
07:21 40.8 °F 33.5 °F 30.19 in ENE 1.2 mph   75% 0.00 in WeatherDisplay:10.37 W/m2 CLR
07:26 40.8 °F 33.8 °F 30.20 in ENE 1.2 mph   76% 0.00 in WeatherDisplay:10.37 W/m2 CLR
07:31 40.7 °F 33.7 °F 30.20 in ENE 1.2 mph   76% 0.00 in WeatherDisplay:10.37 W/m2 CLR
07:36 40.6 °F 33.6 °F 30.20 in NNE 1.2 mph   76% 0.00 in WeatherDisplay:10.37 W/m2 CLR
07:41 40.4 °F 33.8 °F 30.20 in NNW 1.2 mph   77% 0.00 in WeatherDisplay:10.37 W/m2 CLR
07:46 40.3 °F 33.7 °F 30.21 in Calm     77% 0.00 in WeatherDisplay:10.37 W/m2 CLR
07:51 40.2 °F 33.9 °F 30.20 in NNW 1.2 mph   78% 0.00 in WeatherDisplay:10.37 W/m2 CLR
07:57 40.3 °F 34.0 °F 30.21 in NNW 1.2 mph 1.2 mph 78% 0.00 in WeatherDisplay:10.37 W/m2 CLR
08:02 40.6 °F 33.6 °F 30.21 in NW 1.2 mph   76% 0.00 in WeatherDisplay:10.37 W/m2 CLR
08:07 40.9 °F 33.6 °F 30.21 in WNW 1.2 mph   75% 0.00 in WeatherDisplay:10.37 W/m2 CLR
08:12 41.4 °F 33.7 °F 30.21 in WNW 1.2 mph   74% 0.00 in WeatherDisplay:10.37 W/m2 CLR
08:17 41.8 °F 34.1 °F 30.22 in NW 1.2 mph   74% 0.00 in WeatherDisplay:10.37 W/m2 CLR
08:22 42.2 °F 34.5 °F 30.22 in NW 1.2 mph   74% 0.00 in WeatherDisplay:10.37 W/m2 CLR
08:27 42.4 °F 34.4 °F 30.22 in Calm     73% 0.00 in WeatherDisplay:10.37 W/m2 CLR
08:32 42.8 °F 34.7 °F 30.22 in Calm     73% 0.00 in WeatherDisplay:10.37 W/m2 CLR
08:37 43.2 °F 34.4 °F 30.22 in WNW 1.2 mph   71% 0.00 in WeatherDisplay:10.37 W/m2 CLR
08:42 43.8 °F 35.0 °F 30.22 in WSW 1.2 mph   71% 0.00 in WeatherDisplay:10.37 W/m2 CLR
08:48 44.4 °F 34.9 °F 30.22 in Calm     69% 0.00 in WeatherDisplay:10.37 W/m2 CLR
08:53 45.1 °F 35.2 °F 30.23 in WNW 1.2 mph 1.2 mph 68% 0.00 in WeatherDisplay:10.37 W/m2 CLR
08:58 45.8 °F 35.5 °F 30.23 in WNW 1.2 mph   67% 0.00 in WeatherDisplay:10.37 W/m2 CLR
09:03 46.4 °F 35.3 °F 30.23 in WNW 1.2 mph 1.2 mph 65% 0.00 in WeatherDisplay:10.37 W/m2 CLR
09:08 46.6 °F 35.5 °F 30.23 in SE 1.2 mph   65% 0.00 in WeatherDisplay:10.37 W/m2 CLR
09:13 46.8 °F 35.6 °F 30.23 in SW 1.2 mph   65% 0.00 in WeatherDisplay:10.37 W/m2 CLR
09:18 47.1 °F 35.1 °F 30.23 in NW 1.2 mph   63% 0.00 in WeatherDisplay:10.37 W/m2 CLR
09:23 47.5 °F 35.9 °F 30.23 in NNE 1.2 mph   64% 0.00 in WeatherDisplay:10.37 W/m2 CLR
09:28 47.9 °F 35.5 °F 30.24 in NNE 1.2 mph   62% 0.00 in WeatherDisplay:10.37 W/m2 CLR
09:34 48.4 °F 34.7 °F 30.24 in NW 3.5 mph 3.5 mph 59% 0.00 in WeatherDisplay:10.37 W/m2 CLR
09:39 48.8 °F 33.3 °F 30.24 in SSE 4.6 mph 4.6 mph 55% 0.00 in WeatherDisplay:10.37 W/m2 CLR
09:44 49.5 °F 33.1 °F 30.24 in SW 5.8 mph 5.8 mph 53% 0.00 in WeatherDisplay:10.37 W/m2 CLR
09:49 50.1 °F 32.2 °F 30.24 in ESE 5.8 mph   50% 0.00 in WeatherDisplay:10.37 W/m2 CLR
09:54 50.5 °F 32.0 °F 30.24 in SE 5.8 mph 5.8 mph 49% 0.00 in WeatherDisplay:10.37 W/m2 CLR
09:59 51.0 °F 30.9 °F 30.24 in ENE 4.6 mph 4.6 mph 46% 0.00 in WeatherDisplay:10.37 W/m2 CLR
10:04 51.3 °F 31.2 °F 30.24 in ESE 4.6 mph 4.6 mph 46% 0.00 in WeatherDisplay:10.37 W/m2 CLR
10:09 51.8 °F 32.2 °F 30.24 in ESE 4.6 mph   47% 0.00 in WeatherDisplay:10.37 W/m2 CLR
10:19 53.2 °F 30.7 °F 30.24 in ESE 4.6 mph 4.6 mph 42% 0.00 in WeatherDisplay:10.37 W/m2 CLR
10:24 53.9 °F 30.1 °F 30.24 in East 4.6 mph 4.6 mph 40% 0.00 in WeatherDisplay:10.37 W/m2 CLR
10:30 54.5 °F 31.3 °F 30.24 in South 4.6 mph   41% 0.00 in WeatherDisplay:10.37 W/m2 CLR
10:35 54.9 °F 30.4 °F 30.24 in Calm   2.0 mph 39% 0.00 in WeatherDisplay:10.37 W/m2 CLR
10:40 55.1 °F 29.9 °F 30.24 in SE 2.0 mph 6.0 mph 38% 0.00 in WeatherDisplay:10.37 W/m2 CLR
10:45 55.0 °F 29.2 °F 30.24 in SSE 5.8 mph 5.8 mph 37% 0.00 in WeatherDisplay:10.37 W/m2 CLR
10:50 55.0 °F 27.8 °F 30.24 in SE 5.8 mph 5.8 mph 35% 0.00 in WeatherDisplay:10.37 W/m2 CLR
10:55 54.9 °F 27.7 °F 30.24 in SE 5.8 mph 5.8 mph 35% 0.00 in WeatherDisplay:10.37 W/m2 CLR
11:00 55.1 °F 27.2 °F 30.24 in SE 5.8 mph 5.8 mph 34% 0.00 in WeatherDisplay:10.37 W/m2 CLR
11:05 55.5 °F 28.3 °F 30.24 in SE 4.6 mph 4.6 mph 35% 0.00 in WeatherDisplay:10.37 W/m2 CLR
11:10 56.2 °F 29.6 °F 30.23 in South 4.6 mph 4.6 mph 36% 0.00 in WeatherDisplay:10.37 W/m2 CLR
11:15 56.2 °F 25.9 °F 30.23 in ESE 4.6 mph 4.6 mph 31% 0.00 in WeatherDisplay:10.37 W/m2 CLR
11:20 56.2 °F 25.1 °F 30.23 in SE 6.9 mph 6.9 mph 30% 0.00 in WeatherDisplay:10.37 W/m2 CLR
11:25 56.4 °F 27.6 °F 30.23 in SE 6.9 mph 6.9 mph 33% 0.00 in WeatherDisplay:10.37 W/m2 CLR
11:30 56.9 °F 24.9 °F 30.23 in SSE 6.9 mph 6.9 mph 29% 0.00 in WeatherDisplay:10.37 W/m2 CLR
11:35 56.7 °F 23.9 °F 30.23 in South 11.5 mph 11.5 mph 28% 0.00 in WeatherDisplay:10.37 W/m2 CLR
11:40 57.0 °F 22.4 °F 30.22 in SSE 11.5 mph 11.5 mph 26% 0.00 in WeatherDisplay:10.37 W/m2 CLR
11:46 57.0 °F 22.4 °F 30.22 in SE 5.8 mph 5.8 mph 26% 0.00 in WeatherDisplay:10.37 W/m2 CLR
11:51 57.1 °F 22.5 °F 30.22 in ESE 5.8 mph 5.8 mph 26% 0.00 in WeatherDisplay:10.37 W/m2 CLR
11:56 57.6 °F 24.7 °F 30.22 in ESE 5.8 mph 5.8 mph 28% 0.00 in WeatherDisplay:10.37 W/m2 CLR
12:01 57.9 °F 25.8 °F 30.22 in SSE 4.6 mph 4.6 mph 29% 0.00 in WeatherDisplay:10.37 W/m2 FEW
12:06 58.1 °F 27.6 °F 30.22 in SW 4.6 mph 4.6 mph 31% 0.00 in WeatherDisplay:10.37 W/m2 FEW
12:11 58.4 °F 26.2 °F 30.21 in WSW 4.6 mph 4.6 mph 29% 0.00 in WeatherDisplay:10.37 W/m2 FEW
12:16 58.4 °F 28.6 °F 30.21 in South 4.6 mph 4.6 mph 32% 0.00 in WeatherDisplay:10.37 W/m2 FEW
12:21 58.6 °F 28.0 °F 30.21 in SW 4.6 mph   31% 0.00 in WeatherDisplay:10.37 W/m2 FEW
12:26 58.7 °F 28.9 °F 30.21 in SW 4.6 mph 4.6 mph 32% 0.00 in WeatherDisplay:10.37 W/m2 FEW
12:31 58.8 °F 26.6 °F 30.21 in ENE 4.6 mph 4.6 mph 29% 0.00 in WeatherDisplay:10.37 W/m2 FEW
12:36 58.8 °F 27.4 °F 30.20 in SW 4.6 mph 4.6 mph 30% 0.00 in WeatherDisplay:10.37 W/m2 FEW
12:41 59.0 °F 27.6 °F 30.20 in SW 4.6 mph 4.6 mph 30% 0.00 in WeatherDisplay:10.37 W/m2 FEW
12:47 59.3 °F 29.4 °F 30.20 in South 4.6 mph 4.6 mph 32% 0.00 in WeatherDisplay:10.37 W/m2 FEW
12:52 59.3 °F 30.2 °F 30.20 in SSW 4.6 mph 4.6 mph 33% 0.00 in WeatherDisplay:10.37 W/m2 FEW
12:57 59.2 °F 26.9 °F 30.20 in SSW 4.6 mph 4.6 mph 29% 0.00 in WeatherDisplay:10.37 W/m2 FEW
13:02 59.4 °F 27.1 °F 30.20 in WSW 4.6 mph 4.6 mph 29% 0.00 in WeatherDisplay:10.37 W/m2 FEW
13:07 59.3 °F 27.0 °F 30.19 in ESE 4.6 mph 4.6 mph 29% 0.00 in WeatherDisplay:10.37 W/m2 FEW
13:12 59.4 °F 27.1 °F 30.19 in ESE 4.6 mph 4.6 mph 29% 0.00 in WeatherDisplay:10.37 W/m2 FEW
13:18 59.4 °F 28.7 °F 30.18 in SE 5.8 mph 5.8 mph 31% 0.00 in WeatherDisplay:10.37 W/m2 FEW
13:23 59.5 °F 28.0 °F 30.18 in SSE 5.8 mph 5.8 mph 30% 0.00 in WeatherDisplay:10.37 W/m2 FEW
13:28 59.8 °F 29.1 °F 30.18 in SSW 3.5 mph   31% 0.00 in WeatherDisplay:10.37 W/m2 FEW
13:33 59.6 °F 28.9 °F 30.18 in West 5.8 mph   31% 0.00 in WeatherDisplay:10.37 W/m2 FEW
13:38 59.6 °F 27.3 °F 30.18 in WSW 5.8 mph 5.8 mph 29% 0.00 in WeatherDisplay:10.37 W/m2 FEW
13:43 59.3 °F 27.0 °F 30.17 in ESE 5.8 mph   29% 0.00 in WeatherDisplay:10.37 W/m2 FEW
13:53 59.3 °F 27.8 °F 30.17 in SSE 4.6 mph 4.6 mph 30% 0.00 in WeatherDisplay:10.37 W/m2 FEW
13:58 59.4 °F 28.7 °F 30.18 in ENE 4.6 mph 4.6 mph 31% 0.00 in WeatherDisplay:10.37 W/m2 FEW
14:03 59.3 °F 27.8 °F 30.17 in SSE 4.6 mph 4.6 mph 30% 0.00 in WeatherDisplay:10.37 W/m2 FEW
14:08 59.3 °F 28.6 °F 30.18 in WSW 5.8 mph 5.8 mph 31% 0.00 in WeatherDisplay:10.37 W/m2 FEW
14:14 59.2 °F 26.9 °F 30.17 in West 5.8 mph 5.8 mph 29% 0.00 in WeatherDisplay:10.37 W/m2 FEW
14:19 59.1 °F 26.8 °F 30.17 in ESE 3.5 mph 3.5 mph 29% 0.00 in WeatherDisplay:10.37 W/m2 FEW
14:24 59.0 °F 26.8 °F 30.17 in ESE 5.8 mph 5.8 mph 29% 0.00 in WeatherDisplay:10.37 W/m2 FEW
14:29 59.3 °F 27.0 °F 30.17 in ESE 5.8 mph   29% 0.00 in WeatherDisplay:10.37 W/m2 FEW
14:34 59.9 °F 28.4 °F 30.17 in WNW 4.6 mph   30% 0.00 in WeatherDisplay:10.37 W/m2 FEW
14:39 60.4 °F 28.0 °F 30.17 in West 2.3 mph 2.3 mph 29% 0.00 in WeatherDisplay:10.37 W/m2 FEW
14:44 60.2 °F 26.1 °F 30.17 in SW 4.6 mph 4.6 mph 27% 0.00 in WeatherDisplay:10.37 W/m2 FEW
14:49 60.0 °F 25.9 °F 30.17 in NNW 4.6 mph 4.6 mph 27% 0.00 in WeatherDisplay:10.37 W/m2 FEW
14:59 60.3 °F 26.1 °F 30.17 in WNW 5.8 mph   27% 0.00 in WeatherDisplay:10.37 W/m2 FEW
15:04 60.5 °F 26.3 °F 30.17 in NNW 4.6 mph 4.6 mph 27% 0.00 in WeatherDisplay:10.37 W/m2 FEW
15:10 60.0 °F 24.0 °F 30.17 in South 4.6 mph 4.6 mph 25% 0.00 in WeatherDisplay:10.37 W/m2 FEW
15:15 59.7 °F 23.8 °F 30.16 in SE 4.6 mph 4.6 mph 25% 0.00 in WeatherDisplay:10.37 W/m2 FEW
15:20 59.5 °F 23.6 °F 30.17 in SE 4.6 mph 4.6 mph 25% 0.00 in WeatherDisplay:10.37 W/m2 FEW
15:25 59.4 °F 24.5 °F 30.17 in SSE 4.6 mph   26% 0.00 in WeatherDisplay:10.37 W/m2 FEW
15:30 59.3 °F 25.3 °F 30.17 in South 4.6 mph 4.6 mph 27% 0.00 in WeatherDisplay:10.37 W/m2 FEW
15:35 59.3 °F 26.2 °F 30.17 in SE 4.6 mph 4.6 mph 28% 0.00 in WeatherDisplay:10.37 W/m2 FEW
15:40 59.1 °F 24.2 °F 30.17 in ESE 4.6 mph 4.6 mph 26% 0.00 in WeatherDisplay:10.37 W/m2 FEW
15:46 58.9 °F 24.9 °F 30.17 in SE 3.5 mph 3.5 mph 27% 0.00 in WeatherDisplay:10.37 W/m2 FEW
15:51 58.7 °F 25.6 °F 30.17 in WSW 4.6 mph   28% 0.00 in WeatherDisplay:10.37 W/m2 FEW
15:56 58.4 °F 25.4 °F 30.17 in WNW 4.6 mph 4.6 mph 28% 0.00 in WeatherDisplay:10.37 W/m2 FEW
16:01 58.2 °F 25.2 °F 30.17 in WNW 4.6 mph 4.6 mph 28% 0.00 in WeatherDisplay:10.37 W/m2 FEW
16:06 58.0 °F 26.7 °F 30.17 in SW 2.3 mph   30% 0.00 in WeatherDisplay:10.37 W/m2 FEW
16:11 57.7 °F 25.6 °F 30.17 in WSW 2.3 mph 2.3 mph 29% 0.00 in WeatherDisplay:10.37 W/m2 FEW
16:16 57.5 °F 25.5 °F 30.17 in WNW 5.8 mph 5.8 mph 29% 0.00 in WeatherDisplay:10.37 W/m2 FEW
16:21 57.4 °F 27.7 °F 30.16 in SSE 5.8 mph 5.8 mph 32% 0.00 in WeatherDisplay:10.37 W/m2 FEW
16:26 57.0 °F 26.6 °F 30.16 in WNW 2.3 mph 2.3 mph 31% 0.00 in WeatherDisplay:10.37 W/m2 FEW
16:31 56.8 °F 26.5 °F 30.16 in NNW 1.2 mph   31% 0.00 in WeatherDisplay:10.37 W/m2 FEW
16:36 56.6 °F 25.5 °F 30.16 in ESE 2.3 mph 2.3 mph 30% 0.00 in WeatherDisplay:10.37 W/m2 FEW
16:41 56.6 °F 26.3 °F 30.16 in SSE 3.5 mph 3.5 mph 31% 0.00 in WeatherDisplay:10.37 W/m2 FEW
16:46 56.4 °F 25.3 °F 30.16 in SSE 3.5 mph 3.5 mph 30% 0.00 in WeatherDisplay:10.37 W/m2 FEW
16:52 56.2 °F 26.7 °F 30.16 in SSW 3.5 mph   32% 0.00 in WeatherDisplay:10.37 W/m2 FEW
16:57 55.9 °F 26.4 °F 30.16 in SW 1.2 mph 1.2 mph 32% 0.00 in WeatherDisplay:10.37 W/m2 FEW
17:02 55.7 °F 26.3 °F 30.16 in East 1.2 mph   32% 0.00 in WeatherDisplay:10.37 W/m2 FEW
17:12 55.0 °F 27.1 °F 30.16 in ENE 3.5 mph   34% 0.00 in WeatherDisplay:10.37 W/m2 FEW
17:18 54.9 °F 27.0 °F 30.16 in SE 3.5 mph   34% 0.00 in WeatherDisplay:10.37 W/m2 FEW
17:23 54.6 °F 28.8 °F 30.17 in ESE 3.5 mph 3.5 mph 37% 0.00 in WeatherDisplay:10.37 W/m2 FEW
17:28 54.2 °F 27.8 °F 30.16 in ESE 4.6 mph 4.6 mph 36% 0.00 in WeatherDisplay:10.37 W/m2 FEW
17:33 54.0 °F 26.9 °F 30.17 in SE 4.6 mph   35% 0.00 in WeatherDisplay:10.37 W/m2 FEW
17:38 53.8 °F 26.8 °F 30.17 in SE 4.6 mph   35% 0.00 in WeatherDisplay:10.37 W/m2 FEW
17:43 53.6 °F 28.6 °F 30.17 in West 1.2 mph   38% 0.00 in WeatherDisplay:10.37 W/m2 FEW
17:53 52.7 °F 29.0 °F 30.17 in WNW 1.2 mph   40% 0.00 in WeatherDisplay:10.37 W/m2 FEW
17:58 52.3 °F 27.4 °F 30.17 in WNW 1.2 mph   38% 0.00 in WeatherDisplay:10.37 W/m2 FEW
18:03 51.9 °F 28.3 °F 30.17 in WNW 1.2 mph   40% 0.00 in WeatherDisplay:10.37 W/m2 FEW
18:08 51.7 °F 28.1 °F 30.17 in WNW 1.2 mph   40% 0.00 in WeatherDisplay:10.37 W/m2 FEW
18:13 51.7 °F 27.5 °F 30.18 in Calm     39% 0.00 in WeatherDisplay:10.37 W/m2 FEW
18:18 51.5 °F 27.9 °F 30.17 in Calm     40% 0.00 in WeatherDisplay:10.37 W/m2 FEW
18:23 51.2 °F 28.9 °F 30.17 in Calm     42% 0.00 in WeatherDisplay:10.37 W/m2 FEW
18:29 50.9 °F 28.6 °F 30.18 in Calm     42% 0.00 in WeatherDisplay:10.37 W/m2 FEW
18:34 50.5 °F 28.2 °F 30.18 in Calm     42% 0.00 in WeatherDisplay:10.37 W/m2 FEW
18:39 50.2 °F 28.5 °F 30.18 in WNW 1.2 mph   43% 0.00 in WeatherDisplay:10.37 W/m2 FEW
18:44 49.9 °F 28.8 °F 30.18 in WNW 1.2 mph   44% 0.00 in WeatherDisplay:10.37 W/m2 FEW
18:49 49.6 °F 29.1 °F 30.18 in Calm     45% 0.00 in WeatherDisplay:10.37 W/m2 FEW
18:54 49.4 °F 28.9 °F 30.18 in Calm     45% 0.00 in WeatherDisplay:10.37 W/m2 FEW
18:59 49.1 °F 29.2 °F 30.18 in Calm     46% 0.00 in WeatherDisplay:10.37 W/m2 FEW
19:04 48.9 °F 29.0 °F 30.18 in Calm     46% 0.00 in WeatherDisplay:10.37 W/m2 FEW
19:09 48.7 °F 29.4 °F 30.18 in Calm     47% 0.00 in WeatherDisplay:10.37 W/m2 FEW
19:14 48.4 °F 29.6 °F 30.18 in Calm     48% 0.00 in WeatherDisplay:10.37 W/m2 FEW
19:19 48.2 °F 29.4 °F 30.18 in Calm     48% 0.00 in WeatherDisplay:10.37 W/m2 FEW
19:24 48.0 °F 29.7 °F 30.18 in Calm     49% 0.00 in WeatherDisplay:10.37 W/m2 FEW
19:30 47.9 °F 29.6 °F 30.18 in Calm     49% 0.00 in WeatherDisplay:10.37 W/m2 FEW
19:35 47.7 °F 28.9 °F 30.19 in Calm     48% 0.00 in WeatherDisplay:10.37 W/m2 FEW
19:40 47.7 °F 29.0 °F 30.19 in Calm     48% 0.00 in WeatherDisplay:10.37 W/m2 FEW
19:45 47.7 °F 28.9 °F 30.19 in Calm     48% 0.00 in WeatherDisplay:10.37 W/m2 FEW
19:50 47.6 °F 28.9 °F 30.19 in Calm     48% 0.00 in WeatherDisplay:10.37 W/m2 FEW
19:55 47.4 °F 29.7 °F 30.19 in Calm     50% 0.00 in WeatherDisplay:10.37 W/m2 FEW
20:05 46.4 °F 31.1 °F 30.19 in Calm     55% 0.00 in WeatherDisplay:10.37 W/m2 FEW
20:10 45.9 °F 31.1 °F 30.19 in Calm     56% 0.00 in WeatherDisplay:10.37 W/m2 FEW
20:15 45.8 °F 30.1 °F 30.19 in Calm     54% 0.00 in WeatherDisplay:10.37 W/m2 FEW
20:20 45.8 °F 29.6 °F 30.19 in Calm     53% 0.00 in WeatherDisplay:10.37 W/m2 FEW
20:25 45.8 °F 30.1 °F 30.19 in Calm     54% 0.00 in WeatherDisplay:10.37 W/m2 FEW
20:30 45.5 °F 29.8 °F 30.19 in Calm     54% 0.00 in WeatherDisplay:10.37 W/m2 FEW
20:36 45.2 °F 29.1 °F 30.19 in Calm     53% 0.00 in WeatherDisplay:10.37 W/m2 FEW
20:41 45.3 °F 29.2 °F 30.19 in Calm     53% 0.00 in WeatherDisplay:10.37 W/m2 FEW
20:46 45.6 °F 29.4 °F 30.20 in Calm     53% 0.00 in WeatherDisplay:10.37 W/m2 FEW
20:51 45.6 °F 29.9 °F 30.20 in Calm     54% 0.00 in WeatherDisplay:10.37 W/m2 FEW
20:56 45.4 °F 30.2 °F 30.20 in Calm     55% 0.00 in WeatherDisplay:10.37 W/m2 FEW
21:01 45.2 °F 30.4 °F 30.20 in Calm     56% 0.00 in WeatherDisplay:10.37 W/m2 FEW
21:06 44.7 °F 30.4 °F 30.20 in Calm     57% 0.00 in WeatherDisplay:10.37 W/m2 CLR
21:11 44.4 °F 30.1 °F 30.20 in Calm     57% 0.00 in WeatherDisplay:10.37 W/m2 CLR
21:16 44.3 °F 29.6 °F 30.20 in Calm     56% 0.00 in WeatherDisplay:10.37 W/m2 CLR
21:21 44.4 °F 29.7 °F 30.20 in Calm     56% 0.00 in WeatherDisplay:10.37 W/m2 CLR
21:26 44.5 °F 29.3 °F 30.20 in Calm     55% 0.00 in WeatherDisplay:10.37 W/m2 CLR
21:31 44.3 °F 29.6 °F 30.20 in Calm     56% 0.00 in WeatherDisplay:10.37 W/m2 CLR
21:36 44.1 °F 29.8 °F 30.20 in Calm     57% 0.00 in WeatherDisplay:10.37 W/m2 CLR
21:42 43.9 °F 30.1 °F 30.21 in Calm     58% 0.00 in WeatherDisplay:10.37 W/m2 CLR
21:47 43.7 °F 29.9 °F 30.21 in Calm     58% 0.00 in WeatherDisplay:10.37 W/m2 CLR
21:52 43.6 °F 30.2 °F 30.21 in Calm     59% 0.00 in WeatherDisplay:10.37 W/m2 CLR
21:57 43.5 °F 29.7 °F 30.21 in Calm     58% 0.00 in WeatherDisplay:10.37 W/m2 CLR
22:02 43.4 °F 30.0 °F 30.21 in Calm     59% 0.00 in WeatherDisplay:10.37 W/m2 CLR
22:03 43.4 °F 30.0 °F 30.21 in Calm     59% 0.00 in WeatherDisplay:10.37 W/m2 CLR
22:09 43.4 °F 30.0 °F 30.21 in Calm     59% 0.00 in WeatherDisplay:10.37 W/m2 CLR
22:14 43.4 °F 30.0 °F 30.21 in Calm     59% 0.00 in WeatherDisplay:10.37 W/m2 CLR
22:19 43.4 °F 30.0 °F 30.21 in Calm     59% 0.00 in WeatherDisplay:10.37 W/m2 CLR
22:24 43.4 °F 30.4 °F 30.21 in Calm     60% 0.00 in WeatherDisplay:10.37 W/m2 CLR
22:31 43.2 °F 29.8 °F 30.21 in Calm     59% 0.00 in WeatherDisplay:10.37 W/m2 CLR
22:37 43.1 °F 30.1 °F 30.21 in Calm     60% 0.00 in WeatherDisplay:10.37 W/m2 CLR
22:42 42.9 °F 30.8 °F 30.20 in Calm     62% 0.00 in WeatherDisplay:10.37 W/m2 CLR
22:47 42.5 °F 30.0 °F 30.21 in Calm     61% 0.00 in WeatherDisplay:10.37 W/m2 CLR
22:52 42.3 °F 29.8 °F 30.20 in Calm     61% 0.00 in WeatherDisplay:10.37 W/m2 CLR
22:57 42.2 °F 30.5 °F 30.20 in Calm     63% 0.00 in WeatherDisplay:10.37 W/m2 CLR
23:02 42.0 °F 31.1 °F 30.20 in Calm     65% 0.00 in WeatherDisplay:10.37 W/m2 CLR
23:07 41.8 °F 31.3 °F 30.20 in Calm     66% 0.00 in WeatherDisplay:10.37 W/m2 CLR
23:12 41.7 °F 30.0 °F 30.20 in Calm     63% 0.00 in WeatherDisplay:10.37 W/m2 CLR
23:17 41.7 °F 29.6 °F 30.20 in Calm     62% 0.00 in WeatherDisplay:10.37 W/m2 CLR
23:22 42.1 °F 30.0 °F 30.19 in NNE 1.2 mph   62% 0.00 in WeatherDisplay:10.37 W/m2 CLR
23:27 42.2 °F 29.7 °F 30.19 in NNE 1.2 mph   61% 0.00 in WeatherDisplay:10.37 W/m2 CLR
23:32 42.1 °F 30.4 °F 30.19 in NNE 1.2 mph   63% 0.00 in WeatherDisplay:10.37 W/m2 CLR
23:37 42.0 °F 30.7 °F 30.19 in Calm     64% 0.00 in WeatherDisplay:10.37 W/m2 CLR
23:42 41.8 °F 30.5 °F 30.19 in Calm     64% 0.00 in WeatherDisplay:10.37 W/m2 CLR
23:47 41.5 °F 30.2 °F 30.19 in Calm     64% 0.00 in WeatherDisplay:10.37 W/m2 CLR
23:53 41.3 °F 30.0 °F 30.19 in Calm     64% 0.00 in WeatherDisplay:10.37 W/m2 CLR
23:58 40.9 °F 30.4 °F 30.19 in Calm     66% 0.00 in WeatherDisplay:10.37 W/m2 CLR
Piedmont Bend
Compliments of Weather Underground - 4 mb